createdAt,value
2022-11-14T00:01:14.891Z,6.77
2022-11-14T00:03:42.795Z,6.82
2022-11-14T00:06:10.883Z,6.84
2022-11-14T00:08:38.799Z,6.64
2022-11-14T00:11:07.041Z,6.67
2022-11-14T00:13:34.976Z,6.77
2022-11-14T00:16:04.389Z,6.89
2022-11-14T00:18:32.635Z,6.83
2022-11-14T00:21:00.775Z,6.90
2022-11-14T00:23:28.689Z,6.89
2022-11-14T00:25:57.192Z,7.00
2022-11-14T00:28:25.125Z,7.07
2022-11-14T00:30:53.033Z,7.09
2022-11-14T00:33:22.431Z,7.08
2022-11-14T00:35:54.940Z,7.10
2022-11-14T00:38:23.684Z,6.93
2022-11-14T00:40:51.684Z,7.02
2022-11-14T00:43:19.621Z,7.08
2022-11-14T00:45:48.681Z,7.06
2022-11-14T00:48:18.489Z,7.13
2022-11-14T00:50:47.809Z,7.04
2022-11-14T00:53:15.912Z,7.17
2022-11-14T00:55:44.141Z,7.09
2022-11-14T00:58:12.108Z,7.14
2022-11-14T01:00:40.241Z,7.19
2022-11-14T01:03:08.230Z,7.15
2022-11-14T01:05:41.133Z,7.01
2022-11-14T01:08:10.749Z,7.18
2022-11-14T01:10:41.901Z,7.17
2022-11-14T01:13:09.860Z,7.22
2022-11-14T01:15:40.751Z,7.22
2022-11-14T01:18:08.999Z,7.30
2022-11-14T01:20:39.256Z,7.42
2022-11-14T01:23:07.260Z,7.44
2022-11-14T01:25:37.191Z,7.46
2022-11-14T01:28:07.687Z,7.46
2022-11-14T01:30:36.264Z,7.47
2022-11-14T01:33:04.338Z,7.55
2022-11-14T01:35:32.853Z,7.56
2022-11-14T01:38:00.853Z,7.50
2022-11-14T01:40:29.558Z,7.59
2022-11-14T01:43:27.696Z,7.63
2022-11-14T01:45:59.070Z,7.69
2022-11-14T01:48:33.023Z,7.73
2022-11-14T01:51:05.028Z,7.76
2022-11-14T01:53:33.726Z,7.65
2022-11-14T01:56:05.880Z,7.64
2022-11-14T01:58:37.107Z,7.73
2022-11-14T02:01:05.427Z,7.75
2022-11-14T02:03:37.069Z,7.82
2022-11-14T02:06:07.655Z,7.79
2022-11-14T02:08:36.768Z,7.84
2022-11-14T02:11:04.721Z,7.86
2022-11-14T02:13:32.710Z,7.88
2022-11-14T02:16:02.171Z,7.92
2022-11-14T02:18:30.256Z,7.84
2022-11-14T02:20:59.692Z,7.95
2022-11-14T02:23:28.654Z,7.93
2022-11-14T02:25:57.015Z,7.95
2022-11-14T02:28:25.138Z,7.96
2022-11-14T02:30:53.085Z,7.98
2022-11-14T02:33:21.030Z,8.02
2022-11-14T02:35:48.957Z,8.01
2022-11-14T02:38:18.591Z,8.03
2022-11-14T02:40:46.500Z,8.06
2022-11-14T02:43:14.419Z,8.07
2022-11-14T02:45:42.365Z,8.11
2022-11-14T02:48:10.319Z,8.15
2022-11-14T02:50:38.327Z,8.18
2022-11-14T02:53:06.283Z,8.22
2022-11-14T02:55:35.587Z,8.23
2022-11-14T02:58:03.536Z,8.23
2022-11-14T03:00:31.582Z,8.25
2022-11-14T03:02:59.579Z,8.25
2022-11-14T03:05:27.523Z,8.25
2022-11-14T03:07:55.821Z,8.27
2022-11-14T03:10:24.805Z,8.29
2022-11-14T03:12:56.339Z,8.33
2022-11-14T03:15:24.835Z,8.34
2022-11-14T03:17:53.009Z,8.32
2022-11-14T03:20:21.812Z,8.23
2022-11-14T03:22:49.713Z,8.31
2022-11-14T03:25:17.694Z,8.38
2022-11-14T03:27:45.617Z,8.43
2022-11-14T03:30:15.697Z,8.46
2022-11-14T03:32:43.788Z,8.47
2022-11-14T03:35:12.283Z,8.44
2022-11-14T03:37:40.268Z,8.46
2022-11-14T03:40:09.827Z,8.41
2022-11-14T03:42:37.742Z,8.51
2022-11-14T03:45:06.541Z,8.47
2022-11-14T03:47:35.837Z,8.42
2022-11-14T03:50:03.781Z,8.48
2022-11-14T03:52:31.733Z,8.50
2022-11-14T03:54:59.656Z,8.53
2022-11-14T03:57:27.567Z,8.57
2022-11-14T03:59:55.460Z,8.55
2022-11-14T04:02:23.394Z,8.58
2022-11-14T04:04:52.688Z,8.63
2022-11-14T04:07:20.689Z,8.66
2022-11-14T04:09:48.701Z,8.66
2022-11-14T04:12:16.592Z,8.65
2022-11-14T04:14:44.539Z,8.66
2022-11-14T04:17:12.581Z,8.69
2022-11-14T04:19:40.528Z,8.72
2022-11-14T04:22:09.861Z,8.69
2022-11-14T04:24:37.789Z,8.67
2022-11-14T04:27:05.694Z,8.57
2022-11-14T04:29:33.619Z,8.65
2022-11-14T04:32:01.533Z,8.59
2022-11-14T04:34:29.448Z,8.64
2022-11-14T04:36:57.341Z,8.44
2022-11-14T04:39:26.668Z,8.48
2022-11-14T04:41:54.574Z,8.51
2022-11-14T04:44:22.528Z,8.48
2022-11-14T04:46:50.450Z,8.48
2022-11-14T04:49:18.406Z,8.50
2022-11-14T04:51:46.337Z,8.46
2022-11-14T04:54:14.275Z,8.42
2022-11-14T04:56:43.664Z,8.45
2022-11-14T04:59:13.073Z,8.42
2022-11-14T05:01:42.687Z,8.43
2022-11-14T05:04:10.656Z,8.36
2022-11-14T05:06:38.578Z,8.40
2022-11-14T05:09:06.553Z,8.31
2022-11-14T05:11:34.488Z,8.27
2022-11-14T05:14:03.824Z,8.17
2022-11-14T05:16:31.756Z,8.31
2022-11-14T05:18:59.688Z,8.39
2022-11-14T05:21:27.629Z,8.52
2022-11-14T05:23:55.562Z,8.55
2022-11-14T05:26:23.483Z,8.58
2022-11-14T05:28:51.426Z,8.60
2022-11-14T05:31:20.729Z,8.55
2022-11-14T05:33:48.656Z,8.58
2022-11-14T05:36:17.966Z,8.54
2022-11-14T05:38:45.880Z,8.53
2022-11-14T05:41:15.246Z,8.57
2022-11-14T05:43:43.253Z,8.60
2022-11-14T05:46:13.104Z,8.62
2022-11-14T05:48:42.703Z,8.43
2022-11-14T05:51:13.171Z,8.36
2022-11-14T05:53:42.009Z,8.27
2022-11-14T05:56:12.240Z,8.28
2022-11-14T05:58:40.833Z,8.23
2022-11-14T06:01:10.996Z,8.08
2022-11-14T06:03:40.814Z,7.98
2022-11-14T06:06:12.085Z,7.83
2022-11-14T06:08:40.324Z,7.76
2022-11-14T06:11:10.170Z,7.71
2022-11-14T06:13:38.242Z,7.51
2022-11-14T06:16:08.458Z,7.42
2022-11-14T06:18:36.967Z,7.43
2022-11-14T06:21:07.573Z,7.44
2022-11-14T06:23:37.036Z,7.42
2022-11-14T06:26:06.744Z,7.52
2022-11-14T06:28:35.568Z,7.54
2022-11-14T06:31:05.998Z,7.45
2022-11-14T06:33:37.234Z,7.53
2022-11-14T06:36:07.353Z,7.52
2022-11-14T06:38:38.285Z,7.47
2022-11-14T06:41:07.399Z,7.26
2022-11-14T06:43:35.623Z,7.49
2022-11-14T06:46:04.561Z,7.35
2022-11-14T06:48:32.924Z,7.39
2022-11-14T06:51:02.078Z,7.42
2022-11-14T06:53:32.498Z,7.25
2022-11-14T06:56:03.333Z,7.40
2022-11-14T06:58:33.437Z,7.45
2022-11-14T07:01:06.097Z,7.37
2022-11-14T07:03:34.931Z,7.36
2022-11-14T07:06:03.596Z,7.25
2022-11-14T07:08:32.485Z,7.25
2022-11-14T07:11:05.820Z,7.10
2022-11-14T07:13:34.448Z,7.13
2022-11-14T07:16:03.184Z,7.20
2022-11-14T07:18:32.376Z,7.26
2022-11-14T07:21:01.477Z,7.11
2022-11-14T07:23:30.283Z,7.14
2022-11-14T07:26:03.150Z,7.18
2022-11-14T07:28:33.107Z,7.26
2022-11-14T07:31:03.933Z,7.24
2022-11-14T07:33:32.905Z,7.13
2022-11-14T07:36:00.996Z,7.35
2022-11-14T07:38:29.240Z,7.49
2022-11-14T07:40:59.979Z,7.39
2022-11-14T07:43:28.708Z,7.43
2022-11-14T07:46:01.599Z,7.53
2022-11-14T07:48:30.219Z,7.64
2022-11-14T07:51:00.857Z,7.79
2022-11-14T07:53:29.477Z,7.89
2022-11-14T07:55:57.679Z,7.90
2022-11-14T07:58:25.828Z,7.86
2022-11-14T08:00:53.823Z,7.70
2022-11-14T08:03:23.201Z,7.73
2022-11-14T08:05:51.123Z,7.75
2022-11-14T08:08:19.066Z,7.67
2022-11-14T08:10:46.994Z,7.77
2022-11-14T08:13:31.528Z,7.82
2022-11-14T08:16:01.113Z,7.91
2022-11-14T08:18:30.871Z,7.90
2022-11-14T08:20:59.295Z,7.81
2022-11-14T08:23:27.229Z,7.89
2022-11-14T08:25:55.150Z,8.01
2022-11-14T08:28:23.096Z,8.05
2022-11-14T08:30:51.004Z,8.08
2022-11-14T08:33:18.933Z,8.17
2022-11-14T08:35:48.371Z,8.21
2022-11-14T08:38:16.307Z,8.18
2022-11-14T08:40:44.270Z,8.34
2022-11-14T08:43:12.240Z,8.32
2022-11-14T08:45:40.188Z,8.33
2022-11-14T08:48:08.173Z,8.46
2022-11-14T08:50:36.077Z,8.43
2022-11-14T08:53:05.339Z,8.55
2022-11-14T08:55:33.196Z,8.55
2022-11-14T08:58:01.088Z,8.61
2022-11-14T09:00:28.942Z,8.65
2022-11-14T09:02:56.899Z,8.36
2022-11-14T09:05:24.805Z,8.40
2022-11-14T09:07:52.687Z,8.53
2022-11-14T09:10:21.971Z,8.46
2022-11-14T09:12:56.602Z,8.54
2022-11-14T09:15:24.519Z,8.49
2022-11-14T09:17:54.529Z,8.81
2022-11-14T09:20:24.855Z,8.89
2022-11-14T09:22:59.440Z,9.03
2022-11-14T09:25:29.199Z,9.01
2022-11-14T09:27:58.320Z,9.12
2022-11-14T09:30:26.310Z,9.06
2022-11-14T09:32:54.174Z,9.08
2022-11-14T09:35:22.032Z,8.91
2022-11-14T09:37:49.899Z,8.79
2022-11-14T09:40:18.093Z,8.75
2022-11-14T09:43:05.497Z,8.77
2022-11-14T09:45:37.911Z,8.93
2022-11-14T09:48:11.409Z,8.89
2022-11-14T09:50:45.000Z,9.00
2022-11-14T09:53:18.870Z,9.01
2022-11-14T09:55:46.769Z,9.16
2022-11-14T09:58:20.526Z,9.31
2022-11-14T10:00:53.020Z,9.40
2022-11-14T10:03:31.059Z,9.47
2022-11-14T10:06:18.891Z,9.59
2022-11-14T10:09:00.280Z,9.82
2022-11-14T10:11:36.294Z,9.80
2022-11-14T10:14:39.939Z,9.78
2022-11-14T10:17:22.997Z,9.63
2022-11-14T10:20:01.066Z,9.47
2022-11-14T10:22:46.717Z,9.39
2022-11-14T10:25:39.568Z,9.45
2022-11-14T10:28:25.480Z,9.51
2022-11-14T10:31:06.147Z,9.46
2022-11-14T10:33:43.594Z,9.60
2022-11-14T10:36:18.813Z,9.49
2022-11-14T10:38:53.716Z,9.47
2022-11-14T10:41:49.769Z,9.44
2022-11-14T10:44:16.634Z,9.44
2022-11-14T10:46:51.212Z,9.62
2022-11-14T10:49:21.956Z,9.73
2022-11-14T10:51:53.976Z,9.54
2022-11-14T10:54:28.585Z,9.57
2022-11-14T10:56:57.240Z,9.78
2022-11-14T10:59:27.764Z,9.83
2022-11-14T11:01:58.687Z,10.01
2022-11-14T11:04:29.092Z,9.65
2022-11-14T11:06:58.677Z,9.86
2022-11-14T11:09:46.690Z,9.86
2022-11-14T11:12:18.720Z,9.97
2022-11-14T11:14:48.341Z,9.90
2022-11-14T11:17:22.928Z,9.96
2022-11-14T11:19:50.855Z,10.20
2022-11-14T11:22:31.762Z,10.23
2022-11-14T11:24:59.626Z,10.15
2022-11-14T11:27:29.487Z,10.25
2022-11-14T11:30:10.687Z,10.33
2022-11-14T11:32:39.998Z,10.44
2022-11-14T11:35:13.799Z,10.36
2022-11-14T11:37:45.583Z,10.50
2022-11-14T11:40:20.617Z,10.34
2022-11-14T11:43:36.675Z,10.33
2022-11-14T11:45:42.902Z,10.45
2022-11-14T11:48:19.799Z,10.55
2022-11-14T11:50:48.270Z,10.54
2022-11-14T11:53:23.794Z,10.45
2022-11-14T11:55:54.513Z,10.32
2022-11-14T11:58:26.915Z,10.22
2022-11-14T12:00:55.959Z,10.36
2022-11-14T12:03:26.869Z,10.31
2022-11-14T12:06:02.786Z,10.45
2022-11-14T12:08:39.021Z,10.40
2022-11-14T12:11:15.322Z,10.33
2022-11-14T12:14:06.693Z,10.37
2022-11-14T12:16:56.655Z,10.25
2022-11-14T12:19:53.218Z,10.25
2022-11-14T12:22:39.649Z,10.20
2022-11-14T12:25:31.976Z,10.31
2022-11-14T12:28:24.383Z,10.24
2022-11-14T12:30:54.918Z,10.23
2022-11-14T12:33:25.926Z,10.23
2022-11-14T12:35:58.225Z,10.13
2022-11-14T12:38:27.567Z,10.18
2022-11-14T12:40:57.077Z,10.17
2022-11-14T12:43:36.820Z,10.12
2022-11-14T12:46:13.024Z,10.15
2022-11-14T12:48:42.713Z,10.22
2022-11-14T12:51:43.821Z,10.28
2022-11-14T12:54:44.451Z,10.31
2022-11-14T12:57:41.484Z,10.23
2022-11-14T13:00:10.476Z,10.18
2022-11-14T13:03:13.884Z,10.08
2022-11-14T13:05:54.020Z,9.97
2022-11-14T13:08:50.023Z,10.04
2022-11-14T13:11:57.771Z,10.15
2022-11-14T13:14:57.609Z,10.08
2022-11-14T13:17:45.003Z,10.14
2022-11-14T13:21:06.080Z,10.09
2022-11-14T13:23:56.973Z,10.00
2022-11-14T13:26:49.159Z,9.87
2022-11-14T13:29:48.533Z,9.79
2022-11-14T13:33:07.443Z,9.89
2022-11-14T13:36:00.709Z,9.91
2022-11-14T13:39:14.537Z,9.96
2022-11-14T13:42:06.876Z,10.12
2022-11-14T13:45:33.063Z,9.88
2022-11-14T13:48:37.333Z,9.84
2022-11-14T13:51:36.306Z,9.88
2022-11-14T13:53:56.875Z,9.92
2022-11-14T13:56:36.442Z,9.79
2022-11-14T13:59:39.830Z,9.86
2022-11-14T14:02:33.823Z,9.97
2022-11-14T14:05:12.152Z,9.84
2022-11-14T14:07:58.409Z,9.82
2022-11-14T14:10:31.260Z,9.93
2022-11-14T14:13:15.527Z,9.84
2022-11-14T14:15:50.309Z,9.85
2022-11-14T14:18:30.564Z,9.79
2022-11-14T14:21:07.154Z,9.78
2022-11-14T14:23:45.961Z,9.87
2022-11-14T14:26:22.206Z,9.98
2022-11-14T14:29:05.914Z,9.99
2022-11-14T14:31:39.111Z,9.99
2022-11-14T14:34:22.708Z,9.90
2022-11-14T14:36:54.374Z,9.89
2022-11-14T14:39:25.298Z,9.94
2022-11-14T14:41:55.885Z,9.79
2022-11-14T14:44:27.700Z,9.84
2022-11-14T14:46:57.225Z,9.68
2022-11-14T14:49:29.594Z,9.69
2022-11-14T14:51:58.854Z,9.86
2022-11-14T14:54:29.501Z,9.71
2022-11-14T14:57:00.431Z,9.91
2022-11-14T14:59:30.289Z,9.69
2022-11-14T15:02:00.097Z,9.85
2022-11-14T15:04:29.507Z,9.80
2022-11-14T15:06:58.507Z,9.76
2022-11-14T15:09:29.773Z,9.78
2022-11-14T15:12:00.281Z,9.62
2022-11-14T15:14:31.657Z,9.72
2022-11-14T15:17:01.469Z,9.84
2022-11-14T15:19:38.195Z,9.94
2022-11-14T15:22:21.740Z,9.81
2022-11-14T15:25:08.278Z,9.93
2022-11-14T15:27:48.835Z,9.77
2022-11-14T15:30:25.238Z,9.83
2022-11-14T15:32:55.905Z,9.74
2022-11-14T15:35:30.761Z,9.65
2022-11-14T15:38:36.680Z,9.80
2022-11-14T15:41:12.146Z,9.93
2022-11-14T15:43:50.581Z,10.00
2022-11-14T15:46:44.144Z,9.83
2022-11-14T15:49:22.632Z,9.90
2022-11-14T15:51:53.299Z,9.73
2022-11-14T15:54:29.453Z,9.60
2022-11-14T15:56:59.296Z,9.58
2022-11-14T15:59:28.796Z,9.58
2022-11-14T16:02:00.433Z,9.61
2022-11-14T16:04:34.440Z,9.49
2022-11-14T16:07:02.420Z,9.60
2022-11-14T16:09:30.401Z,9.66
2022-11-14T16:11:58.375Z,9.72
2022-11-14T16:14:26.304Z,9.57
2022-11-14T16:16:54.258Z,9.40
2022-11-14T16:19:23.065Z,9.39
2022-11-14T16:21:52.492Z,9.59
2022-11-14T16:24:22.117Z,9.42
2022-11-14T16:26:50.966Z,9.27
2022-11-14T16:29:18.900Z,9.36
2022-11-14T16:31:47.468Z,9.28
2022-11-14T16:34:19.320Z,9.29
2022-11-14T16:36:48.737Z,9.42
2022-11-14T16:39:18.443Z,9.49
2022-11-14T16:41:46.377Z,9.27
2022-11-14T16:44:17.176Z,9.20
2022-11-14T16:46:46.049Z,9.21
2022-11-14T16:49:15.611Z,9.35
2022-11-14T16:51:48.305Z,9.16
2022-11-14T16:54:19.316Z,9.23
2022-11-14T16:56:47.643Z,9.37
2022-11-14T16:59:15.746Z,9.48
2022-11-14T17:01:43.938Z,9.51
2022-11-14T17:04:12.683Z,9.50
2022-11-14T17:06:40.634Z,9.25
2022-11-14T17:09:08.664Z,9.37
2022-11-14T17:11:37.972Z,9.36
2022-11-14T17:14:05.945Z,9.39
2022-11-14T17:16:34.085Z,9.44
2022-11-14T17:19:02.228Z,9.40
2022-11-14T17:21:30.201Z,9.24
2022-11-14T17:24:01.454Z,9.20
2022-11-14T17:26:30.196Z,9.08
2022-11-14T17:28:59.539Z,9.07
2022-11-14T17:31:27.480Z,9.36
2022-11-14T17:33:57.014Z,9.26
2022-11-14T17:36:26.308Z,9.37
2022-11-14T17:38:55.006Z,9.28
2022-11-14T17:41:23.553Z,9.32
2022-11-14T17:43:54.058Z,9.36
2022-11-14T17:46:24.274Z,9.43
2022-11-14T17:48:52.213Z,9.53
2022-11-14T17:51:20.210Z,9.37
2022-11-14T17:53:48.153Z,9.40
2022-11-14T17:56:18.265Z,9.39
2022-11-14T17:58:46.967Z,9.48
2022-11-14T18:01:17.227Z,9.53
2022-11-14T18:03:46.610Z,9.62
2022-11-14T18:06:16.165Z,9.69
2022-11-14T18:08:44.086Z,9.71
2022-11-14T18:11:13.746Z,9.73
2022-11-14T18:13:42.454Z,9.71
2022-11-14T18:16:13.090Z,9.54
2022-11-14T18:18:41.399Z,9.58
2022-11-14T18:21:13.836Z,9.43
2022-11-14T18:23:42.014Z,9.63
2022-11-14T18:26:11.176Z,9.73
2022-11-14T18:28:39.194Z,9.78
2022-11-14T18:31:10.868Z,9.55
2022-11-14T18:33:39.313Z,9.60
2022-11-14T18:36:09.812Z,9.73
2022-11-14T18:38:39.404Z,9.83
2022-11-14T18:41:10.035Z,9.87
2022-11-14T18:43:38.012Z,9.85
2022-11-14T18:46:08.160Z,9.70
2022-11-14T18:48:37.316Z,9.61
2022-11-14T18:51:07.885Z,9.54
2022-11-14T18:53:38.105Z,9.49
2022-11-14T18:56:06.724Z,8.95
2022-11-14T18:58:36.109Z,9.17
2022-11-14T19:01:11.347Z,9.15
2022-11-14T19:03:39.369Z,9.18
2022-11-14T19:06:08.824Z,9.14
2022-11-14T19:08:38.321Z,9.29
2022-11-14T19:11:07.990Z,9.29
2022-11-14T19:13:36.395Z,9.04
2022-11-14T19:16:04.937Z,9.05
2022-11-14T19:18:33.630Z,9.10
2022-11-14T19:21:03.501Z,9.06
2022-11-14T19:23:31.789Z,9.10
2022-11-14T19:26:02.688Z,9.10
2022-11-14T19:28:30.713Z,8.95
2022-11-14T19:31:03.077Z,8.87
2022-11-14T19:33:31.462Z,8.96
2022-11-14T19:36:00.098Z,8.72
2022-11-14T19:38:28.037Z,8.59
2022-11-14T19:40:58.600Z,8.56
2022-11-14T19:43:30.418Z,8.50
2022-11-14T19:46:02.228Z,8.35
2022-11-14T19:48:30.289Z,8.36
2022-11-14T19:51:03.493Z,8.55
2022-11-14T19:53:34.032Z,8.65
2022-11-14T19:56:02.900Z,8.76
2022-11-14T19:58:32.361Z,8.84
2022-11-14T20:01:04.432Z,8.77
2022-11-14T20:03:32.946Z,8.86
2022-11-14T20:06:01.413Z,8.97
2022-11-14T20:08:29.573Z,8.98
2022-11-14T20:10:59.495Z,8.94
2022-11-14T20:13:30.706Z,8.97
2022-11-14T20:16:00.939Z,8.94
2022-11-14T20:18:31.317Z,9.02
2022-11-14T20:21:03.869Z,8.91
2022-11-14T20:23:32.296Z,8.96
2022-11-14T20:26:00.605Z,8.80
2022-11-14T20:28:28.660Z,8.71
2022-11-14T20:30:56.797Z,8.51
2022-11-14T20:33:26.203Z,8.48
2022-11-14T20:35:54.281Z,8.53
2022-11-14T20:38:22.318Z,8.76
2022-11-14T20:40:55.038Z,8.83
2022-11-14T20:43:23.100Z,8.90
2022-11-14T20:45:58.835Z,8.91
2022-11-14T20:48:29.803Z,8.79
2022-11-14T20:51:03.649Z,8.78
2022-11-14T20:53:32.300Z,8.78
2022-11-14T20:56:01.265Z,8.61
2022-11-14T20:58:29.509Z,8.78
2022-11-14T21:00:57.627Z,8.82
2022-11-14T21:03:26.051Z,8.57
2022-11-14T21:05:56.389Z,8.46
2022-11-14T21:08:24.344Z,8.49
2022-11-14T21:10:59.566Z,8.36
2022-11-14T21:13:45.733Z,8.41
2022-11-14T21:16:15.557Z,8.31
2022-11-14T21:18:47.753Z,8.28
2022-11-14T21:21:23.564Z,8.37
2022-11-14T21:23:52.050Z,8.47
2022-11-14T21:26:21.966Z,8.55
2022-11-14T21:28:51.781Z,8.29
2022-11-14T21:31:21.365Z,8.55
2022-11-14T21:33:51.064Z,8.54
2022-11-14T21:39:14.918Z,8.50
2022-11-14T21:41:44.363Z,8.40
2022-11-14T21:44:14.761Z,8.46
2022-11-14T21:46:42.947Z,8.47
2022-11-14T21:49:11.267Z,8.51
2022-11-14T21:51:40.559Z,8.62
2022-11-14T21:54:08.593Z,8.64
2022-11-14T21:56:38.078Z,8.70
2022-11-14T21:59:18.445Z,8.65
2022-11-14T22:02:05.902Z,8.55
2022-11-14T22:04:34.573Z,8.59
2022-11-14T22:07:06.528Z,8.43
2022-11-14T22:09:34.955Z,8.48
2022-11-14T22:12:03.262Z,8.36
2022-11-14T22:14:31.190Z,8.38
2022-11-14T22:16:59.238Z,8.51
2022-11-14T22:19:27.299Z,8.20
2022-11-14T22:21:55.417Z,8.22
2022-11-14T22:24:24.877Z,8.11
2022-11-14T22:26:52.817Z,8.18
2022-11-14T22:29:20.729Z,8.19
2022-11-14T22:31:48.659Z,8.21
2022-11-14T22:34:16.734Z,8.35
2022-11-14T22:36:44.674Z,8.17
2022-11-14T22:39:12.602Z,8.31
2022-11-14T22:41:41.923Z,8.41
2022-11-14T22:44:09.894Z,8.40
2022-11-14T22:46:37.821Z,8.36
2022-11-14T22:49:05.769Z,8.37
2022-11-14T22:51:33.746Z,8.28
2022-11-14T22:54:01.675Z,8.38
2022-11-14T22:56:30.583Z,8.29
2022-11-14T22:59:01.462Z,8.14
2022-11-14T23:01:31.338Z,8.34
2022-11-14T23:04:01.206Z,8.47
2022-11-14T23:06:31.025Z,8.62
2022-11-14T23:08:59.534Z,8.71
2022-11-14T23:11:30.068Z,8.76
2022-11-14T23:14:01.090Z,8.82
2022-11-14T23:16:31.022Z,8.91
2022-11-14T23:19:01.170Z,8.84
2022-11-14T23:21:31.255Z,8.71
2022-11-14T23:24:01.180Z,8.79
2022-11-14T23:26:31.145Z,8.68
2022-11-14T23:29:00.816Z,8.78
2022-11-14T23:31:29.416Z,8.63
2022-11-14T23:33:58.936Z,8.63
2022-11-14T23:36:26.865Z,8.55
2022-11-14T23:38:55.118Z,8.59
2022-11-14T23:41:25.474Z,8.53
2022-11-14T23:43:53.711Z,8.46
2022-11-14T23:46:23.056Z,8.58
2022-11-14T23:48:53.430Z,8.28
2022-11-14T23:51:21.640Z,8.42
2022-11-14T23:53:49.577Z,8.36
2022-11-14T23:56:17.517Z,8.55
2022-11-14T23:58:45.596Z,8.67
